Time;durP1;ratioP1;P1;durP2;ratioP2;P2;SDS_P1;SDS_P2;PMS_P1;PMS_P2;Temp;Humidity;BMP_temperature;BMP_pressure;BME280_temperature;BME280_humidity;BME280_pressure;Samples;Min_cycle;Max_cycle;Signal;HPM_P1;HPM_P2
2022/12/01 00:01:58;;;;;;;17.35;9.90;;;;;;;6.93;91.41;102060.44;5055404;28;20052;-58
2022/12/01 00:04:23;;;;;;;19.70;10.38;;;;;;;6.91;91.57;102065.50;5049038;28;20036;-58
2022/12/01 00:06:49;;;;;;;18.52;8.85;;;;;;;6.92;91.96;102056.09;5051441;28;20501;-58
2022/12/01 00:11:58;;;;;;;15.52;9.15;;;;;;;6.91;91.77;102065.50;5049101;28;20090;-59
2022/12/01 00:14:23;;;;;;;18.15;9.18;;;;;;;6.93;91.47;102067.28;5053815;28;20036;-58
2022/12/01 00:16:49;;;;;;;16.95;9.15;;;;;;;6.91;91.70;102059.53;5052252;28;20139;-59
2022/12/01 00:19:14;;;;;;;21.65;11.35;;;;;;;6.90;91.68;102066.38;5051969;28;20045;-59
2022/12/01 00:21:40;;;;;;;14.05;8.45;;;;;;;6.91;91.99;102070.66;5049628;28;20131;-59
2022/12/01 00:24:06;;;;;;;19.98;10.00;;;;;;;6.91;91.39;102068.09;5046779;28;20039;-59
2022/12/01 00:26:31;;;;;;;16.90;9.25;;;;;;;6.91;91.61;102070.66;5033224;28;20028;-59
2022/12/01 00:28:58;;;;;;;16.52;9.50;;;;;;;6.91;91.61;102068.09;5031859;28;20041;-59
2022/12/01 00:31:25;;;;;;;17.38;9.60;;;;;;;6.90;91.72;102068.06;5040091;28;20036;-59
2022/12/01 00:33:51;;;;;;;18.90;10.07;;;;;;;6.91;91.47;102062.94;5050454;28;20929;-59
2022/12/01 00:36:17;;;;;;;17.73;9.95;;;;;;;6.90;91.60;102065.50;5047691;28;20030;-59
2022/12/01 00:38:42;;;;;;;16.95;9.73;;;;;;;6.89;91.72;102069.75;5050024;28;20090;-59
2022/12/01 00:41:07;;;;;;;17.08;9.13;;;;;;;6.90;91.37;102066.38;5053127;28;20041;-59
2022/12/01 00:43:33;;;;;;;16.33;9.85;;;;;;;6.89;91.79;102063.75;5049310;28;20046;-59
2022/12/01 00:45:58;;;;;;;18.58;9.75;;;;;;;6.90;91.91;102065.50;5065137;28;20033;-59
2022/12/01 00:48:24;;;;;;;15.50;8.57;;;;;;;6.91;91.38;102070.66;5045720;28;20139;-59
2022/12/01 00:50:51;;;;;;;17.02;8.65;;;;;;;6.92;90.69;102063.81;5048490;28;20044;-59
2022/12/01 00:53:17;;;;;;;16.48;9.43;;;;;;;6.91;90.89;102067.25;5049539;28;20048;-59
2022/12/01 00:55:42;;;;;;;16.48;10.23;;;;;;;6.92;90.86;102061.25;5054683;28;20551;-59
2022/12/01 00:58:07;;;;;;;16.80;9.25;;;;;;;6.92;90.92;102063.81;5048231;28;20740;-59
2022/12/01 01:00:33;;;;;;;16.05;9.30;;;;;;;6.92;91.41;102066.38;5047008;28;20452;-59
2022/12/01 01:02:58;;;;;;;16.75;9.70;;;;;;;6.93;91.14;102069.84;5049129;28;20068;-59
2022/12/01 01:05:24;;;;;;;16.27;8.35;;;;;;;6.92;91.30;102066.38;5053496;28;20043;-59
2022/12/01 01:07:49;;;;;;;12.90;8.38;;;;;;;6.92;91.26;102066.38;5052203;28;20140;-60
2022/12/01 01:10:14;;;;;;;14.90;8.15;;;;;;;6.93;91.26;102065.56;5050077;28;20037;-59
2022/12/01 01:12:40;;;;;;;12.65;7.93;;;;;;;6.94;91.56;102074.16;5049364;28;20868;-59
2022/12/01 01:15:06;;;;;;;14.43;8.70;;;;;;;6.94;91.48;102084.44;5034090;28;20109;-60
2022/12/01 01:17:32;;;;;;;12.07;7.82;;;;;;;6.96;91.33;102082.78;5032730;28;20044;-60
2022/12/01 01:19:58;;;;;;;15.75;9.10;;;;;;;6.93;91.18;102073.28;5032821;28;20048;-61
2022/12/01 01:22:23;;;;;;;13.63;8.80;;;;;;;6.95;91.17;102075.88;5030957;28;20889;-60
2022/12/01 01:24:48;;;;;;;13.80;8.98;;;;;;;6.95;91.53;102081.91;5051793;28;20044;-60
2022/12/01 01:27:14;;;;;;;16.38;9.20;;;;;;;6.96;91.41;102087.91;5053167;28;20567;-60
2022/12/01 01:29:39;;;;;;;13.93;8.10;;;;;;;6.96;91.17;102093.06;5033819;28;20045;-60
2022/12/01 01:32:04;;;;;;;16.00;9.10;;;;;;;6.96;91.34;102090.47;5027986;28;20091;-60
2022/12/01 01:34:30;;;;;;;16.95;9.38;;;;;;;6.96;91.45;102088.78;5031501;28;20048;-60
2022/12/01 01:36:55;;;;;;;15.93;9.10;;;;;;;6.98;91.32;102091.38;5031700;28;20075;-60
2022/12/01 01:39:21;;;;;;;17.38;9.88;;;;;;;6.98;91.36;102088.81;5042916;28;20696;-59
2022/12/01 01:41:46;;;;;;;13.70;8.73;;;;;;;6.98;91.41;102089.69;5043393;28;20041;-59
2022/12/01 01:44:50;;;;;;;18.25;10.65;;;;;;;6.98;91.55;102089.69;5045117;28;20044;-59
2022/12/01 01:47:25;;;;;;;15.82;10.07;;;;;;;6.99;91.62;102094.00;5051953;28;20032;-59
2022/12/01 01:49:53;;;;;;;18.00;9.85;;;;;;;6.98;91.66;102086.25;5032894;28;20072;-59
2022/12/01 01:52:20;;;;;;;18.15;10.45;;;;;;;6.99;91.81;102088.88;5027720;28;20074;-59
2022/12/01 01:54:48;;;;;;;18.83;10.35;;;;;;;6.99;91.96;102088.00;5029479;28;20052;-59
2022/12/01 01:57:18;;;;;;;17.55;9.93;;;;;;;6.99;91.58;102088.88;5034828;28;20020;-59
2022/12/01 01:59:50;;;;;;;17.95;10.80;;;;;;;6.99;91.95;102088.88;5048937;28;20041;-59
2022/12/01 02:02:15;;;;;;;15.65;9.63;;;;;;;6.99;92.02;102088.88;5053414;28;20044;-59
2022/12/01 02:04:45;;;;;;;17.92;11.23;;;;;;;7.00;92.54;102084.59;5043526;28;20080;-59
2022/12/01 02:07:15;;;;;;;16.42;9.70;;;;;;;7.00;92.54;102087.19;5048487;28;20063;-59
2022/12/01 02:09:40;;;;;;;17.75;10.20;;;;;;;6.99;92.61;102083.72;5042810;28;20039;-59
2022/12/01 02:12:17;;;;;;;15.90;10.23;;;;;;;7.00;92.54;102094.91;5045998;28;20795;-59
2022/12/01 02:15:01;;;;;;;19.73;10.80;;;;;;;7.00;92.30;102092.31;5050763;28;20119;-60
2022/12/01 02:17:45;;;;;;;17.30;10.02;;;;;;;7.01;92.76;102092.34;5049417;28;20583;-59
2022/12/01 02:20:22;;;;;;;24.65;10.85;;;;;;;6.99;92.52;102095.72;5042639;28;20051;-59
2022/12/01 02:23:40;;;;;;;20.63;11.38;;;;;;;6.97;92.52;102085.41;5043132;28;20129;-59
2022/12/01 02:26:28;;;;;;;18.95;11.50;;;;;;;6.94;93.11;102092.16;5040229;28;20064;-59
2022/12/01 02:29:38;;;;;;;18.90;10.85;;;;;;;6.93;92.87;102082.69;5039506;28;20463;-59
2022/12/01 02:32:10;;;;;;;17.25;10.57;;;;;;;6.91;93.92;102085.22;5050890;28;20132;-59
2022/12/01 02:34:59;;;;;;;20.52;11.82;;;;;;;6.89;93.47;102084.31;5051790;28;20032;-59
2022/12/01 02:37:34;;;;;;;22.45;11.13;;;;;;;6.86;94.02;102079.94;5053085;28;20040;-59
2022/12/01 02:40:30;;;;;;;21.10;11.27;;;;;;;6.86;94.01;102085.09;5045792;28;20039;-58
2022/12/01 02:43:41;;;;;;;22.02;11.98;;;;;;;6.84;93.76;102088.44;5043574;28;20064;-59
2022/12/01 02:46:40;;;;;;;20.83;11.68;;;;;;;6.83;93.95;102077.28;5044460;28;20037;-58
2022/12/01 02:49:14;;;;;;;19.77;11.88;;;;;;;6.83;94.23;102085.00;5046776;28;20155;-58
2022/12/01 02:51:45;;;;;;;23.55;13.20;;;;;;;6.82;94.31;102080.69;5053298;28;20052;-59
2022/12/01 02:54:13;;;;;;;21.67;12.48;;;;;;;6.82;94.08;102082.41;5056394;28;20101;-59
2022/12/01 02:56:39;;;;;;;19.50;10.60;;;;;;;6.82;94.40;102078.09;5056596;28;20089;-58
2022/12/01 02:59:09;;;;;;;22.58;13.45;;;;;;;6.83;95.03;102082.44;5052403;28;20049;-59
2022/12/01 03:02:16;;;;;;;24.10;13.48;;;;;;;6.81;95.04;102084.09;5054642;28;20044;-58
2022/12/01 03:04:54;;;;;;;22.13;12.35;;;;;;;6.79;94.86;102080.59;5054527;28;20041;-58
2022/12/01 03:07:51;;;;;;;24.17;13.95;;;;;;;6.79;94.99;102080.59;5056908;28;20045;-59
2022/12/01 03:10:22;;;;;;;22.50;12.52;;;;;;;6.78;95.07;102076.31;5055309;28;20067;-59
2022/12/01 03:12:53;;;;;;;23.13;12.50;;;;;;;6.78;95.04;102084.00;5051889;28;20048;-59
2022/12/01 03:15:41;;;;;;;22.65;13.02;;;;;;;6.77;95.44;102081.38;5053353;28;20833;-59
2022/12/01 03:18:15;;;;;;;26.35;13.98;;;;;;;6.77;95.60;102084.84;5054507;28;20041;-58
2022/12/01 03:21:02;;;;;;;24.42;13.45;;;;;;;6.76;95.61;102085.66;5057267;28;20049;-58
2022/12/01 03:23:32;;;;;;;26.92;13.57;;;;;;;6.75;95.96;102078.78;5055979;28;20169;-59
2022/12/01 03:26:00;;;;;;;30.95;15.80;;;;;;;6.75;95.80;102081.34;5057329;28;20037;-58
2022/12/01 03:28:35;;;;;;;29.20;15.63;;;;;;;6.75;95.94;102075.34;5056807;28;20502;-59
2022/12/01 03:31:06;;;;;;;29.27;14.75;;;;;;;6.74;96.43;102076.16;5059241;28;20083;-58
2022/12/01 03:33:42;;;;;;;32.70;16.33;;;;;;;6.75;96.16;102072.78;5055420;28;20036;-58
2022/12/01 03:36:39;;;;;;;31.40;15.73;;;;;;;6.74;96.53;102076.16;5053532;28;20027;-59
2022/12/01 03:39:13;;;;;;;31.80;16.33;;;;;;;6.74;96.33;102078.72;5050236;28;20040;-58
2022/12/01 03:41:58;;;;;;;33.70;15.87;;;;;;;6.73;96.54;102072.72;5052471;28;20044;-58
2022/12/01 03:44:30;;;;;;;34.42;15.80;;;;;;;6.74;96.73;102076.16;5049206;28;20045;-59
2022/12/01 03:47:02;;;;;;;39.45;17.15;;;;;;;6.73;96.66;102074.44;5054005;28;20044;-59
2022/12/01 03:49:28;;;;;;;37.97;17.50;;;;;;;6.73;96.79;102080.44;5052545;28;20045;-58
2022/12/01 03:52:19;;;;;;;30.58;16.35;;;;;;;6.71;96.78;102076.06;5057771;28;20114;-59
2022/12/01 03:55:05;;;;;;;34.30;17.25;;;;;;;6.69;96.71;102077.75;5056361;28;20051;-58
2022/12/01 03:57:39;;;;;;;36.88;17.40;;;;;;;6.69;96.97;102076.03;5053193;28;20033;-59
2022/12/01 04:00:06;;;;;;;33.55;16.25;;;;;;;6.71;96.94;102070.94;5057887;28;20020;-59
2022/12/01 04:02:32;;;;;;;43.22;18.15;;;;;;;6.72;97.14;102082.97;5054702;28;20041;-58
2022/12/01 04:04:57;;;;;;;41.10;19.45;;;;;;;6.71;96.90;102083.78;5053444;28;20043;-58
2022/12/01 04:07:23;;;;;;;42.80;18.05;;;;;;;6.69;97.19;102086.31;5048812;28;20716;-58
2022/12/01 04:09:48;;;;;;;45.10;20.35;;;;;;;6.69;97.26;102086.31;5052903;28;20068;-59
2022/12/01 04:12:29;;;;;;;40.03;19.15;;;;;;;6.69;97.27;102082.88;5049716;28;20036;-59
2022/12/01 04:15:03;;;;;;;43.35;19.08;;;;;;;6.68;97.18;102086.25;5055977;28;20040;-58
2022/12/01 04:17:29;;;;;;;41.97;20.17;;;;;;;6.66;97.34;102083.66;5054666;28;20061;-59
2022/12/01 04:19:54;;;;;;;45.38;20.98;;;;;;;6.68;97.53;102073.41;5051972;28;20308;-58
2022/12/01 04:22:20;;;;;;;37.28;18.60;;;;;;;6.66;97.70;102075.97;5054113;28;20048;-59
2022/12/01 04:24:46;;;;;;;38.90;19.55;;;;;;;6.66;97.45;102082.78;5049578;28;21073;-59
2022/12/01 04:27:11;;;;;;;38.58;18.90;;;;;;;6.67;98.27;102084.53;5055063;28;20036;-59
2022/12/01 04:29:37;;;;;;;38.33;18.85;;;;;;;6.64;97.70;102080.19;5049459;28;20122;-59
2022/12/01 04:32:02;;;;;;;40.35;19.55;;;;;;;6.65;97.45;102076.78;5050730;28;20605;-59
2022/12/01 04:34:28;;;;;;;36.33;17.42;;;;;;;6.64;97.81;102080.19;5051632;28;20037;-58
2022/12/01 04:36:54;;;;;;;37.88;17.33;;;;;;;6.65;97.94;102075.91;5052622;28;20036;-58
2022/12/01 04:39:19;;;;;;;39.67;19.23;;;;;;;6.62;97.63;102071.56;5055924;28;20032;-59
2022/12/01 04:41:44;;;;;;;39.28;17.90;;;;;;;6.63;97.78;102073.31;5046108;28;21245;-59
2022/12/01 04:44:10;;;;;;;35.38;17.58;;;;;;;6.62;97.41;102073.25;5050737;28;20044;-59
2022/12/01 04:46:36;;;;;;;37.95;18.38;;;;;;;6.63;97.55;102075.00;5046651;28;20072;-66
2022/12/01 04:49:03;;;;;;;37.53;17.60;;;;;;;6.61;97.64;102076.66;5050276;28;20048;-66
2022/12/01 04:51:28;;;;;;;40.10;17.40;;;;;;;6.62;97.77;102074.13;5051072;28;20143;-59
2022/12/01 04:53:53;;;;;;;39.10;18.02;;;;;;;6.62;97.33;102084.41;5054732;28;20086;-59
2022/12/01 04:56:19;;;;;;;37.67;18.00;;;;;;;6.62;97.35;102081.81;5058383;28;20098;-58
2022/12/01 04:58:44;;;;;;;37.42;17.17;;;;;;;6.60;97.70;102073.22;5051254;28;20051;-59
2022/12/01 05:01:12;;;;;;;37.83;17.23;;;;;;;6.62;97.43;102079.25;5050861;28;20048;-59
2022/12/01 05:03:40;;;;;;;39.05;17.98;;;;;;;6.61;97.44;102079.22;5054216;28;20048;-58
2022/12/01 05:06:25;;;;;;;33.92;17.42;;;;;;;6.61;97.19;102087.81;5054262;28;20062;-59
2022/12/01 05:08:54;;;;;;;33.45;17.77;;;;;;;6.62;97.28;102080.94;5053028;28;20075;-58
2022/12/01 05:11:20;;;;;;;29.38;15.85;;;;;;;6.62;97.33;102086.97;5053457;28;20532;-59
2022/12/01 05:13:47;;;;;;;40.78;17.88;;;;;;;6.61;96.89;102086.94;5048741;28;20044;-59
2022/12/01 05:16:18;;;;;;;37.80;18.90;;;;;;;6.60;96.98;102086.06;5054234;28;20175;-59
2022/12/01 05:18:48;;;;;;;37.65;17.40;;;;;;;6.59;97.43;102086.00;5053566;28;20111;-59
2022/12/01 05:21:13;;;;;;;38.97;17.90;;;;;;;6.61;97.03;102087.81;5054106;28;20043;-59
2022/12/01 05:23:38;;;;;;;40.58;19.83;;;;;;;6.62;96.84;102083.53;5033165;28;20044;-60
2022/12/01 05:26:06;;;;;;;43.80;20.02;;;;;;;6.62;97.15;102092.09;5032159;28;20656;-59
2022/12/01 05:28:32;;;;;;;38.55;19.50;;;;;;;6.62;97.08;102089.53;5033036;28;20045;-58
2022/12/01 05:30:58;;;;;;;40.70;20.52;;;;;;;6.63;97.08;102093.84;5036172;28;20114;-59
2022/12/01 05:33:25;;;;;;;38.78;19.23;;;;;;;6.64;97.07;102082.75;5051895;28;20527;-59
2022/12/01 05:35:51;;;;;;;42.22;19.65;;;;;;;6.64;97.23;102082.75;5054126;28;20064;-59
2022/12/01 05:38:17;;;;;;;43.58;19.65;;;;;;;6.65;97.05;102081.03;5052669;28;20127;-59
2022/12/01 05:40:49;;;;;;;39.38;18.52;;;;;;;6.64;96.67;102081.88;5042661;28;20068;-60
2022/12/01 05:43:14;;;;;;;39.70;19.30;;;;;;;6.64;96.93;102087.91;5031457;28;20519;-58
2022/12/01 05:45:39;;;;;;;42.55;20.60;;;;;;;6.63;96.50;102088.72;5035225;28;20041;-58
2022/12/01 05:48:05;;;;;;;41.45;18.90;;;;;;;6.62;96.90;102084.41;5032157;28;20044;-58
2022/12/01 05:50:30;;;;;;;40.80;18.25;;;;;;;6.62;96.60;102094.66;5030364;28;20041;-59
2022/12/01 05:52:56;;;;;;;44.25;20.95;;;;;;;6.62;96.36;102089.53;5030499;28;20088;-58
2022/12/01 05:55:21;;;;;;;43.42;20.75;;;;;;;6.61;96.51;102089.50;5030170;28;20041;-58
2022/12/01 05:57:47;;;;;;;49.42;20.20;;;;;;;6.60;96.58;102091.19;5034123;28;20052;-58
2022/12/01 06:00:13;;;;;;;40.58;20.10;;;;;;;6.56;96.42;102081.66;5031079;28;20628;-58
2022/12/01 06:02:40;;;;;;;40.83;20.95;;;;;;;6.56;96.44;102085.91;5033274;28;20103;-58
2022/12/01 06:05:06;;;;;;;44.15;21.33;;;;;;;6.53;96.23;102090.97;5029547;28;20060;-58
2022/12/01 06:07:33;;;;;;;51.10;22.33;;;;;;;6.50;96.05;102088.31;5028640;28;20431;-58
2022/12/01 06:09:59;;;;;;;45.90;21.33;;;;;;;6.48;96.35;102089.97;5027865;28;20033;-58
2022/12/01 06:12:24;;;;;;;46.50;21.02;;;;;;;6.45;96.62;102085.63;5031120;28;20036;-59
2022/12/01 06:14:50;;;;;;;43.45;20.77;;;;;;;6.42;96.54;102092.34;5046992;28;20049;-58
2022/12/01 06:17:15;;;;;;;49.50;22.88;;;;;;;6.42;96.41;102100.94;5035460;28;20047;-59
2022/12/01 06:19:42;;;;;;;49.30;20.33;;;;;;;6.43;96.64;102104.38;5032451;28;20140;-58
2022/12/01 06:22:08;;;;;;;45.28;21.45;;;;;;;6.44;97.23;102106.13;5028586;28;20040;-58
2022/12/01 06:24:33;;;;;;;43.83;22.33;;;;;;;6.44;96.99;102098.44;5035431;28;20029;-59
2022/12/01 06:26:58;;;;;;;53.97;23.27;;;;;;;6.44;96.62;102108.69;5044257;28;20040;-59
2022/12/01 06:29:24;;;;;;;49.92;22.27;;;;;;;6.44;96.64;102104.41;5039921;28;20331;-59
2022/12/01 06:31:49;;;;;;;54.35;22.98;;;;;;;6.44;96.24;102109.53;5028701;28;20051;-58
2022/12/01 06:34:14;;;;;;;44.65;21.58;;;;;;;6.44;96.62;102109.53;5032922;28;20045;-59
2022/12/01 06:36:40;;;;;;;47.97;21.77;;;;;;;6.47;96.52;102119.06;5033727;28;20087;-59
2022/12/01 06:39:09;;;;;;;54.60;23.55;;;;;;;6.45;95.87;102113.00;5051751;28;20040;-59
2022/12/01 06:41:38;;;;;;;46.20;22.67;;;;;;;6.45;95.96;102116.44;5053799;28;20036;-59
2022/12/01 06:44:04;;;;;;;46.88;22.30;;;;;;;6.47;95.68;102116.50;5052532;28;20093;-59
2022/12/01 06:46:29;;;;;;;48.45;21.95;;;;;;;6.46;95.64;102109.59;5051718;28;20079;-59
2022/12/01 06:48:55;;;;;;;40.67;19.63;;;;;;;6.47;95.46;102114.78;5046382;28;20060;-59
2022/12/01 06:51:23;;;;;;;45.67;20.88;;;;;;;6.49;95.41;102113.16;5052838;28;20056;-59
2022/12/01 06:53:55;;;;;;;46.47;21.08;;;;;;;6.47;94.55;102119.06;5045144;28;20045;-58
2022/12/01 06:56:21;;;;;;;45.20;22.00;;;;;;;6.46;94.04;102115.63;5051324;28;20404;-59
2022/12/01 06:58:50;;;;;;;42.40;20.02;;;;;;;6.46;94.45;102125.00;5053010;28;20586;-59
2022/12/01 07:01:16;;;;;;;45.63;22.15;;;;;;;6.45;94.13;102125.84;5049505;28;20041;-59
2022/12/01 07:03:42;;;;;;;44.85;21.80;;;;;;;6.45;94.39;102133.53;5051310;28;20033;-59
2022/12/01 07:06:08;;;;;;;47.00;22.45;;;;;;;6.46;94.44;102137.84;5050196;28;20016;-59
2022/12/01 07:08:33;;;;;;;44.53;21.05;;;;;;;6.47;94.63;102139.59;5050857;28;20552;-59
2022/12/01 07:11:03;;;;;;;41.78;20.67;;;;;;;6.46;93.99;102140.44;5044642;28;20127;-59
2022/12/01 07:13:29;;;;;;;41.42;19.77;;;;;;;6.44;93.77;102140.38;5039044;28;20033;-59
2022/12/01 07:15:54;;;;;;;39.17;20.10;;;;;;;6.45;93.70;102136.09;5033061;28;20033;-59
2022/12/01 07:18:20;;;;;;;37.60;19.00;;;;;;;6.45;93.68;102133.53;5047366;28;20037;-59
2022/12/01 07:20:46;;;;;;;40.08;20.63;;;;;;;6.43;93.72;102141.22;5051875;28;20058;-59
2022/12/01 07:23:11;;;;;;;39.30;19.85;;;;;;;6.44;93.72;102145.50;5047903;28;20083;-59
2022/12/01 07:25:36;;;;;;;41.08;20.10;;;;;;;6.43;93.00;102140.34;5051333;28;20036;-59
2022/12/01 07:28:02;;;;;;;38.33;19.55;;;;;;;6.43;92.97;102143.78;5052031;28;20098;-59
2022/12/01 07:30:27;;;;;;;40.35;19.08;;;;;;;6.46;92.55;102155.84;5043376;28;20090;-59
2022/12/01 07:32:53;;;;;;;38.63;18.13;;;;;;;6.46;93.02;102150.69;5047137;28;20033;-59
2022/12/01 07:35:19;;;;;;;33.65;17.63;;;;;;;6.47;93.31;102155.03;5059013;28;21261;-65
2022/12/01 07:37:44;;;;;;;37.63;19.17;;;;;;;6.47;92.76;102152.47;5062632;28;20056;-65
2022/12/01 07:40:10;;;;;;;33.67;17.50;;;;;;;6.47;92.87;102158.44;5066741;28;20036;-65
2022/12/01 07:42:39;;;;;;;33.05;16.73;;;;;;;6.48;92.94;102149.03;5064833;28;20029;-65
2022/12/01 07:45:05;;;;;;;38.85;17.75;;;;;;;6.48;93.36;102162.75;5057811;28;20116;-65
2022/12/01 07:47:31;;;;;;;35.22;18.75;;;;;;;6.48;92.79;102160.19;5055734;28;20040;-59
2022/12/01 07:49:56;;;;;;;37.95;17.58;;;;;;;6.48;92.46;102162.75;5052576;28;20064;-59
2022/12/01 07:52:21;;;;;;;36.78;18.40;;;;;;;6.48;93.12;102157.63;5050498;28;20041;-59
2022/12/01 07:54:47;;;;;;;32.72;17.13;;;;;;;6.48;92.96;102155.06;5057162;28;20430;-60
2022/12/01 07:57:13;;;;;;;35.58;17.77;;;;;;;6.50;92.94;102155.09;5058053;28;20028;-59
2022/12/01 07:59:39;;;;;;;31.58;17.00;;;;;;;6.49;92.81;102156.81;5050604;28;20525;-59
2022/12/01 08:02:04;;;;;;;33.92;18.80;;;;;;;6.51;92.75;102160.28;5054820;28;20046;-59
2022/12/01 08:04:30;;;;;;;37.65;18.58;;;;;;;6.51;92.93;102157.72;5054079;28;20033;-59
2022/12/01 08:06:55;;;;;;;38.30;19.17;;;;;;;6.53;92.84;102160.31;5052526;28;20406;-59
2022/12/01 08:09:21;;;;;;;36.53;18.38;;;;;;;6.55;93.17;102159.56;5055011;28;20040;-59
2022/12/01 08:11:46;;;;;;;35.22;19.20;;;;;;;6.59;92.86;102165.63;5049006;28;20064;-59
2022/12/01 08:14:11;;;;;;;36.50;19.10;;;;;;;6.58;92.32;102156.22;5033810;28;20513;-59
2022/12/01 08:16:37;;;;;;;35.55;17.83;;;;;;;6.57;92.41;102159.59;5038792;28;20308;-59
2022/12/01 08:19:02;;;;;;;36.60;17.83;;;;;;;6.59;92.85;102163.94;5058443;28;20110;-59
2022/12/01 08:21:28;;;;;;;39.42;18.95;;;;;;;6.60;92.75;102163.13;5056359;28;20034;-59
2022/12/01 08:23:55;;;;;;;39.70;19.02;;;;;;;6.61;92.19;102164.88;5054612;28;20035;-59
2022/12/01 08:26:23;;;;;;;32.60;18.15;;;;;;;6.62;92.76;102166.59;5058132;28;20451;-59
2022/12/01 08:28:49;;;;;;;35.95;17.85;;;;;;;6.65;93.03;102173.53;5047739;28;20147;-59
2022/12/01 08:31:27;;;;;;;31.65;17.45;;;;;;;6.68;93.14;102176.19;5047465;28;20041;-60
2022/12/01 08:33:53;;;;;;;37.92;19.38;;;;;;;6.70;92.39;102167.72;5039209;28;20033;-59
2022/12/01 08:36:20;;;;;;;35.35;18.38;;;;;;;6.72;92.98;102165.19;5035767;28;20044;-59
2022/12/01 08:38:49;;;;;;;36.05;19.63;;;;;;;6.75;92.96;102173.88;5030162;28;20033;-59
2022/12/01 08:41:15;;;;;;;34.72;19.33;;;;;;;6.78;92.68;102173.97;5031907;28;20030;-59
2022/12/01 08:43:43;;;;;;;39.95;19.40;;;;;;;6.82;92.87;102180.91;5042088;28;20525;-59
2022/12/01 08:46:09;;;;;;;38.17;18.55;;;;;;;6.82;92.59;102178.34;5061095;28;20040;-59
2022/12/01 08:48:35;;;;;;;38.67;19.05;;;;;;;6.82;92.80;102180.91;5063353;28;20027;-59
2022/12/01 08:51:06;;;;;;;41.95;20.05;;;;;;;6.85;92.08;102180.16;5033263;28;20044;-59
2022/12/01 08:53:33;;;;;;;43.95;21.08;;;;;;;6.84;92.23;102175.81;5030139;28;20317;-59
2022/12/01 08:56:04;;;;;;;41.03;20.40;;;;;;;6.84;92.26;102181.84;5029471;28;20822;-59
2022/12/01 08:58:29;;;;;;;38.90;19.17;;;;;;;6.84;92.55;102183.53;5035354;28;20041;-60
2022/12/01 09:01:09;;;;;;;39.90;20.88;;;;;;;6.84;92.15;102184.41;5037372;28;20047;-59
2022/12/01 09:03:36;;;;;;;39.05;18.73;;;;;;;6.84;92.38;102181.84;5055746;28;20425;-59
2022/12/01 09:06:06;;;;;;;36.40;19.50;;;;;;;6.88;92.44;102180.25;5033967;28;20025;-59
2022/12/01 09:08:33;;;;;;;35.13;18.98;;;;;;;6.91;91.31;102182.91;5046498;28;20148;-59
2022/12/01 09:11:01;;;;;;;37.63;18.75;;;;;;;6.92;91.94;102189.75;5052793;28;20038;-59
2022/12/01 09:13:27;;;;;;;35.50;18.05;;;;;;;6.93;91.64;102183.81;5052903;28;20977;-59
2022/12/01 09:16:01;;;;;;;32.22;17.27;;;;;;;6.94;91.58;102192.41;5052761;28;20194;-59
2022/12/01 09:18:27;;;;;;;35.00;17.75;;;;;;;6.95;91.77;102196.69;5053231;28;20029;-59
2022/12/01 09:20:54;;;;;;;36.33;18.33;;;;;;;6.95;91.57;102189.84;5052201;28;20039;-59
2022/12/01 09:23:20;;;;;;;36.97;18.13;;;;;;;6.96;92.12;102191.59;5052155;28;20508;-59
2022/12/01 09:25:46;;;;;;;39.17;20.08;;;;;;;6.98;91.72;102186.50;5053426;28;20506;-59
2022/12/01 09:28:12;;;;;;;35.55;18.92;;;;;;;7.00;92.28;102190.00;5051485;28;20085;-59
2022/12/01 09:30:38;;;;;;;33.00;15.50;;;;;;;7.01;91.75;102184.00;5054076;28;20032;-60
2022/12/01 09:33:03;;;;;;;33.35;17.58;;;;;;;7.02;90.71;102193.47;5054701;28;20021;-58
2022/12/01 09:35:29;;;;;;;32.58;16.92;;;;;;;7.06;90.99;102195.31;5052254;28;20032;-58
2022/12/01 09:37:55;;;;;;;31.35;15.40;;;;;;;7.10;90.50;102192.00;5048344;28;20062;-59
2022/12/01 09:40:29;;;;;;;26.58;14.82;;;;;;;7.08;89.36;102185.94;5048199;28;20732;-58
2022/12/01 09:42:56;;;;;;;26.00;14.65;;;;;;;7.08;90.01;102194.53;5053216;28;20052;-58
2022/12/01 09:45:29;;;;;;;29.75;14.75;;;;;;;7.06;89.75;102185.88;5052319;28;20054;-58
2022/12/01 09:47:58;;;;;;;28.27;14.70;;;;;;;7.05;89.74;102191.00;5050856;28;20112;-58
2022/12/01 09:50:24;;;;;;;27.05;15.32;;;;;;;7.06;90.21;102196.16;5051827;28;20048;-58
2022/12/01 09:53:05;;;;;;;26.63;14.25;;;;;;;7.08;90.77;102188.50;5044729;28;20788;-58
2022/12/01 09:55:32;;;;;;;33.10;16.75;;;;;;;7.08;90.83;102191.09;5051685;28;20195;-58
2022/12/01 09:58:00;;;;;;;32.80;15.93;;;;;;;7.08;91.09;102186.81;5041864;28;20044;-58
2022/12/01 10:00:30;;;;;;;35.67;17.33;;;;;;;7.10;91.29;102192.00;5033499;28;20116;-58
2022/12/01 10:03:12;;;;;;;37.58;18.00;;;;;;;7.10;90.84;102190.28;5051822;28;20054;-58
2022/12/01 10:05:48;;;;;;;36.75;18.02;;;;;;;7.06;90.62;102183.31;5049821;28;20060;-59
2022/12/01 10:08:18;;;;;;;35.15;16.73;;;;;;;7.06;91.45;102183.31;5032767;28;20120;-58
2022/12/01 10:10:48;;;;;;;33.22;17.02;;;;;;;7.06;91.83;102190.19;5026661;28;20502;-58
2022/12/01 10:13:25;;;;;;;33.47;16.95;;;;;;;7.03;90.70;102187.53;5033414;28;20091;-58
2022/12/01 10:16:05;;;;;;;31.25;15.18;;;;;;;7.05;90.46;102173.88;5036958;28;20489;-58
2022/12/01 10:18:52;;;;;;;31.52;14.75;;;;;;;7.03;89.91;102177.25;5037263;28;20044;-58
2022/12/01 10:21:36;;;;;;;29.00;14.75;;;;;;;7.01;90.55;102174.59;5051959;28;20044;-58
2022/12/01 10:24:20;;;;;;;20.17;11.43;;;;;;;7.00;90.77;102178.00;5050079;28;20028;-58
2022/12/01 10:27:16;;;;;;;24.02;13.43;;;;;;;6.95;90.79;102177.00;5058632;28;20037;-58
2022/12/01 10:29:54;;;;;;;28.38;13.93;;;;;;;6.97;90.06;102170.22;5052648;28;20052;-58
2022/12/01 10:32:29;;;;;;;25.25;13.68;;;;;;;7.01;89.80;102171.16;5050383;28;20048;-58
2022/12/01 10:34:56;;;;;;;24.45;13.50;;;;;;;7.02;90.19;102166.06;5051698;28;20041;-58
2022/12/01 10:37:26;;;;;;;26.17;13.93;;;;;;;7.06;90.72;102167.03;5047249;28;20038;-58
2022/12/01 10:39:55;;;;;;;25.55;12.45;;;;;;;7.10;90.85;102163.72;5051369;28;20033;-58
2022/12/01 10:42:23;;;;;;;24.65;11.52;;;;;;;7.13;89.54;102167.25;5044596;28;20525;-58
2022/12/01 10:44:49;;;;;;;19.42;11.38;;;;;;;7.13;88.79;102169.81;5050801;28;20115;-58
2022/12/01 10:47:20;;;;;;;18.27;9.57;;;;;;;7.13;87.39;102168.94;5048674;28;20734;-58
2022/12/01 10:49:46;;;;;;;15.20;8.45;;;;;;;7.14;86.05;102160.41;5051643;28;20040;-58
2022/12/01 10:52:40;;;;;;;13.40;8.35;;;;;;;7.13;86.06;102158.66;5052169;28;20036;-58
2022/12/01 10:55:27;;;;;;;17.25;8.98;;;;;;;7.13;86.83;102158.66;5053398;28;20659;-59
2022/12/01 10:57:55;;;;;;;15.55;9.32;;;;;;;7.16;86.78;102163.91;5056059;28;20058;-59
2022/12/01 11:00:24;;;;;;;13.90;8.55;;;;;;;7.16;86.59;102157.06;5050805;28;20038;-59
2022/12/01 11:02:49;;;;;;;15.25;9.40;;;;;;;7.19;86.88;102166.56;5053768;28;20102;-58
2022/12/01 11:05:24;;;;;;;13.02;8.00;;;;;;;7.20;84.42;102158.03;5054693;28;20246;-59
2022/12/01 11:07:51;;;;;;;13.43;8.27;;;;;;;7.19;84.63;102159.72;5053972;28;20067;-58
2022/12/01 11:10:27;;;;;;;12.93;7.78;;;;;;;7.19;84.83;102152.03;5055389;28;20528;-58
2022/12/01 11:13:05;;;;;;;13.35;8.10;;;;;;;7.21;85.10;102147.78;5053662;28;20048;-59
2022/12/01 11:15:49;;;;;;;14.75;8.80;;;;;;;7.22;85.52;102146.09;5054994;28;20029;-58
2022/12/01 11:18:30;;;;;;;12.95;7.43;;;;;;;7.25;84.88;102141.91;5055369;28;20040;-58
2022/12/01 11:21:06;;;;;;;11.13;6.97;;;;;;;7.29;84.49;102141.16;5051989;28;20048;-60
2022/12/01 11:23:35;;;;;;;14.70;8.02;;;;;;;7.36;84.94;102140.47;5052818;28;20486;-59
2022/12/01 11:26:12;;;;;;;16.60;8.60;;;;;;;7.38;84.36;102143.09;5051786;28;20448;-59
2022/12/01 11:28:48;;;;;;;12.82;7.90;;;;;;;7.38;84.51;102140.53;5054326;28;21994;-58
2022/12/01 11:31:14;;;;;;;15.45;9.93;;;;;;;7.39;83.75;102143.13;5051711;28;20055;-58
2022/12/01 11:33:48;;;;;;;18.33;10.70;;;;;;;7.40;83.63;102133.72;5050355;28;20045;-59
2022/12/01 11:36:45;;;;;;;16.90;9.77;;;;;;;7.38;83.92;102136.25;5056244;28;20055;-59